< < Back
Terminal Aerodrome Forecast


Current Version              Previous Versions:   1  2  3  4  5  6  7  8  9  

Terminal Aerodrome Forecast

019
FTUS42 KTAE 300200 AAA
TAFABY
TAF AMD
KABY 300220Z 3002/3024 03004KT P6SM BKN012
      TEMPO 3002/3006 4SM -DZ BR SCT005 BKN009
     FM300600 05003KT 4SM -DZ BR BKN007
     FM301500 05005KT P6SM BKN025
     FM301800 05005KT P6SM SCT030=



Latest METAR

334
SAUS70 KWBC 301600 RRD
MTRABY
METAR KABY 301553Z VRB06KT 10SM BKN013 OVC027 23/19 A2995 RMK AO2 SLP140
T02330194 $


USA.gov is the U.S. government's official web portal to all federal, state and local government web resources and services.